createdAt,value
2023-03-20T00:02:25.733Z,99219.59
2023-03-20T00:04:54.856Z,99232.63
2023-03-20T00:07:23.709Z,99232.06
2023-03-20T00:09:52.041Z,99232.72
2023-03-20T00:12:26.968Z,99234.69
2023-03-20T00:14:55.466Z,99233.09
2023-03-20T00:17:23.900Z,99229.81
2023-03-20T00:19:52.572Z,99238.03
2023-03-20T00:22:22.733Z,99234.53
2023-03-20T00:24:51.578Z,99240.03
2023-03-20T00:27:22.733Z,99245.03
2023-03-20T00:29:52.287Z,99246.56
2023-03-20T00:32:20.733Z,99249.03
2023-03-20T00:34:49.306Z,99249.03
2023-03-20T00:37:17.718Z,99248.97
2023-03-20T00:39:47.194Z,99251.63
2023-03-20T00:42:22.901Z,99244.22
2023-03-20T00:44:55.962Z,99253.22
2023-03-20T00:47:27.404Z,99246.50
2023-03-20T00:49:58.140Z,99258.78
2023-03-20T00:52:26.660Z,99259.84
2023-03-20T00:54:55.292Z,99259.38
2023-03-20T00:57:31.695Z,99261.53
2023-03-20T01:00:06.594Z,99267.31
2023-03-20T01:02:35.485Z,99263.72
2023-03-20T01:05:05.995Z,99262.28
2023-03-20T01:07:36.752Z,99262.59
2023-03-20T01:10:06.029Z,99267.13
2023-03-20T01:12:35.057Z,99261.16
2023-03-20T01:15:05.197Z,99258.25
2023-03-20T01:17:36.051Z,99260.09
2023-03-20T01:20:04.443Z,99267.41
2023-03-20T01:22:32.542Z,99265.41
2023-03-20T01:25:03.080Z,99258.72
2023-03-20T01:27:32.369Z,99258.13
2023-03-20T01:30:00.918Z,99264.22
2023-03-20T01:32:31.541Z,99262.47
2023-03-20T01:35:01.375Z,99262.22
2023-03-20T01:37:30.148Z,99265.22
2023-03-20T01:39:59.130Z,99267.78
2023-03-20T01:42:27.769Z,99267.22
2023-03-20T01:44:56.362Z,99264.81
2023-03-20T01:47:28.025Z,99259.78
2023-03-20T01:50:26.971Z,99267.06
2023-03-20T01:53:09.905Z,99267.34
2023-03-20T01:55:40.081Z,99269.50
2023-03-20T01:58:12.452Z,99268.50
2023-03-20T02:00:40.814Z,99265.97
2023-03-20T02:03:10.663Z,99267.63
2023-03-20T02:05:42.382Z,99271.50
2023-03-20T02:08:18.612Z,99280.34
2023-03-20T02:10:48.358Z,99278.19
2023-03-20T02:13:20.955Z,99282.34
2023-03-20T02:16:03.488Z,99279.03
2023-03-20T02:18:32.916Z,99289.03
2023-03-20T02:21:38.847Z,99281.78
2023-03-20T02:24:35.570Z,99278.84
2023-03-20T02:27:09.530Z,99280.34
2023-03-20T02:30:16.502Z,99279.06
2023-03-20T02:33:30.036Z,99274.34
2023-03-20T02:36:52.724Z,99269.88
2023-03-20T02:39:33.327Z,99271.00
2023-03-20T02:42:09.909Z,99266.28
2023-03-20T02:44:45.434Z,99278.59
2023-03-20T02:47:22.256Z,99291.63
2023-03-20T02:49:57.116Z,99289.22
2023-03-20T02:52:37.329Z,99292.66
2023-03-20T02:55:18.732Z,99293.03
2023-03-20T02:57:58.483Z,99289.28
2023-03-20T03:00:30.785Z,99289.00
2023-03-20T03:03:08.239Z,99298.47
2023-03-20T03:05:40.629Z,99304.09
2023-03-20T03:08:14.154Z,99298.69
2023-03-20T03:10:50.552Z,99303.75
2023-03-20T03:13:24.394Z,99298.47
2023-03-20T03:15:56.875Z,99298.91
2023-03-20T03:18:28.428Z,99296.16
2023-03-20T03:20:59.759Z,99304.50
2023-03-20T03:23:30.882Z,99296.47
2023-03-20T03:26:06.862Z,99296.94
2023-03-20T03:28:39.570Z,99292.59
2023-03-20T03:31:12.858Z,99286.34
2023-03-20T03:33:46.206Z,99286.56
2023-03-20T03:36:23.397Z,99285.09
2023-03-20T03:38:57.911Z,99277.00
2023-03-20T03:41:34.548Z,99286.31
2023-03-20T03:44:09.701Z,99284.41
2023-03-20T03:46:44.906Z,99291.94
2023-03-20T03:49:17.478Z,99303.47
2023-03-20T03:51:49.192Z,99307.75
2023-03-20T03:54:21.615Z,99299.66
2023-03-20T03:56:52.669Z,99308.00
2023-03-20T03:59:26.192Z,99310.00
2023-03-20T04:01:57.755Z,99316.03
2023-03-20T04:04:28.668Z,99323.22
2023-03-20T04:06:58.018Z,99318.09
2023-03-20T04:09:26.130Z,99327.25
2023-03-20T04:11:56.705Z,99319.22
2023-03-20T04:14:25.191Z,99331.22
2023-03-20T04:16:53.859Z,99324.63
2023-03-20T04:19:22.202Z,99324.72
2023-03-20T04:21:51.192Z,99333.72
2023-03-20T04:24:19.415Z,99336.63
2023-03-20T04:26:48.132Z,99343.50
2023-03-20T04:29:19.433Z,99345.06
2023-03-20T04:31:47.667Z,99354.59
2023-03-20T04:34:16.549Z,99368.78
2023-03-20T04:36:45.837Z,99363.63
2023-03-20T04:39:15.856Z,99375.53
2023-03-20T04:41:44.882Z,99381.72
2023-03-20T04:44:13.279Z,99379.66
2023-03-20T04:46:44.759Z,99382.56
2023-03-20T04:49:13.545Z,99388.16
2023-03-20T04:51:41.876Z,99382.34
2023-03-20T04:54:10.197Z,99387.97
2023-03-20T04:56:38.746Z,99388.06
2023-03-20T04:59:07.124Z,99387.38
2023-03-20T05:01:38.310Z,99383.09
2023-03-20T05:04:08.756Z,99375.16
2023-03-20T05:06:37.354Z,99372.91
2023-03-20T05:09:07.197Z,99374.84
2023-03-20T05:11:35.637Z,99366.69
2023-03-20T05:14:05.581Z,99361.16
2023-03-20T05:16:34.017Z,99363.53
2023-03-20T05:19:02.404Z,99361.66
2023-03-20T05:21:34.823Z,99361.41
2023-03-20T05:24:05.381Z,99372.69
2023-03-20T05:26:33.774Z,99367.06
2023-03-20T05:29:02.563Z,99363.41
2023-03-20T05:31:30.907Z,99369.00
2023-03-20T05:34:01.430Z,99371.44
2023-03-20T05:36:29.737Z,99378.75
2023-03-20T05:38:59.861Z,99368.31
2023-03-20T05:41:28.536Z,99367.47
2023-03-20T05:43:58.939Z,99361.00
2023-03-20T05:46:29.674Z,99356.31
2023-03-20T05:48:58.020Z,99350.25
2023-03-20T05:51:27.279Z,99349.56
2023-03-20T05:53:55.443Z,99343.88
2023-03-20T05:56:27.161Z,99351.81
2023-03-20T05:58:55.222Z,99361.69
2023-03-20T06:01:23.696Z,99353.94
2023-03-20T06:03:52.092Z,99351.81
2023-03-20T06:06:20.433Z,99370.56
2023-03-20T06:08:48.627Z,99370.56
2023-03-20T06:11:17.034Z,99366.63
2023-03-20T06:13:46.951Z,99371.06
2023-03-20T06:16:16.302Z,99373.88
2023-03-20T06:18:44.695Z,99377.91
2023-03-20T06:21:13.211Z,99381.31
2023-03-20T06:23:42.703Z,99377.31
2023-03-20T06:26:12.276Z,99383.84
2023-03-20T06:28:40.738Z,99383.94
2023-03-20T06:31:11.082Z,99375.41
2023-03-20T06:33:41.155Z,99367.06
2023-03-20T06:36:11.326Z,99362.78
2023-03-20T06:38:40.112Z,99360.41
2023-03-20T06:41:09.256Z,99358.97
2023-03-20T06:43:39.622Z,99351.97
2023-03-20T06:46:11.197Z,99361.78
2023-03-20T06:48:41.184Z,99355.88
2023-03-20T06:51:10.024Z,99361.94
2023-03-20T06:53:38.690Z,99360.16
2023-03-20T06:56:08.108Z,99368.84
2023-03-20T06:58:36.408Z,99371.97
2023-03-20T07:01:10.001Z,99384.09
2023-03-20T07:03:40.261Z,99382.88
2023-03-20T07:06:09.336Z,99388.88
2023-03-20T07:08:37.719Z,99393.41
2023-03-20T07:11:06.460Z,99390.66
2023-03-20T07:13:34.914Z,99394.16
2023-03-20T07:16:05.258Z,99395.34
2023-03-20T07:18:33.746Z,99400.13
2023-03-20T07:21:08.098Z,99398.41
2023-03-20T07:23:36.765Z,99395.34
2023-03-20T07:26:06.937Z,99398.50
2023-03-20T07:28:35.401Z,99398.84
2023-03-20T07:31:05.686Z,99395.16
2023-03-20T07:33:34.242Z,99392.50
2023-03-20T07:36:02.680Z,99387.50
2023-03-20T07:38:32.771Z,99385.00
2023-03-20T07:41:01.120Z,99382.78
2023-03-20T07:43:29.429Z,99386.34
2023-03-20T07:45:58.005Z,99385.66
2023-03-20T07:48:26.418Z,99382.25
2023-03-20T07:50:54.806Z,99387.09
2023-03-20T07:53:23.159Z,99371.97
2023-03-20T07:55:53.180Z,99382.47
2023-03-20T07:58:21.932Z,99381.19
2023-03-20T08:00:50.676Z,99383.94
2023-03-20T08:03:19.337Z,99388.16
2023-03-20T08:05:48.084Z,99385.88
2023-03-20T08:08:16.926Z,99383.72
2023-03-20T08:10:47.265Z,99382.22
2023-03-20T08:13:17.573Z,99395.06
2023-03-20T08:15:46.219Z,99403.94
2023-03-20T08:18:14.793Z,99403.09
2023-03-20T08:20:43.335Z,99406.75
2023-03-20T08:23:11.961Z,99403.69
2023-03-20T08:25:40.375Z,99411.00
2023-03-20T08:28:08.903Z,99413.47
2023-03-20T08:30:38.841Z,99412.06
2023-03-20T08:33:07.631Z,99405.84
2023-03-20T08:35:36.067Z,99414.22
2023-03-20T08:38:04.569Z,99418.25
2023-03-20T08:40:34.440Z,99421.31
2023-03-20T08:43:03.853Z,99429.13
2023-03-20T08:45:32.308Z,99429.09
2023-03-20T08:48:03.937Z,99417.19
2023-03-20T08:50:33.490Z,99414.66
2023-03-20T08:53:02.241Z,99422.03
2023-03-20T08:55:31.024Z,99426.59
2023-03-20T08:57:59.732Z,99424.97
2023-03-20T09:00:28.589Z,99427.47
2023-03-20T09:02:57.003Z,99420.97
2023-03-20T09:05:27.631Z,99424.91
2023-03-20T09:07:55.952Z,99421.94
2023-03-20T09:10:24.285Z,99427.56
2023-03-20T09:12:52.582Z,99421.84
2023-03-20T09:15:21.105Z,99423.56
2023-03-20T09:17:49.346Z,99421.69
2023-03-20T09:20:18.277Z,99415.97
2023-03-20T09:22:48.099Z,99411.69
2023-03-20T09:25:18.938Z,99425.34
2023-03-20T09:27:47.026Z,99420.19
2023-03-20T09:30:16.233Z,99412.56
2023-03-20T09:32:45.664Z,99414.47
2023-03-20T09:35:17.211Z,99414.44
2023-03-20T09:37:47.543Z,99416.19
2023-03-20T09:40:25.485Z,99408.97
2023-03-20T09:43:03.832Z,99418.31
2023-03-20T09:45:47.348Z,99409.81
2023-03-20T09:48:20.769Z,99414.03
2023-03-20T09:50:58.584Z,99423.53
2023-03-20T09:53:34.743Z,99416.19
2023-03-20T09:56:03.307Z,99411.94
2023-03-20T09:58:35.336Z,99416.91
2023-03-20T10:01:07.820Z,99412.47
2023-03-20T10:03:54.200Z,99421.34
2023-03-20T10:06:23.938Z,99408.06
2023-03-20T10:08:55.391Z,99426.41
2023-03-20T10:11:52.159Z,99412.28
2023-03-20T10:14:29.552Z,99406.47
2023-03-20T10:17:15.970Z,99419.31
2023-03-20T10:19:47.895Z,99434.91
2023-03-20T10:22:25.865Z,99422.00
2023-03-20T10:25:07.451Z,99423.78
2023-03-20T10:27:41.400Z,99421.88
2023-03-20T10:30:28.452Z,99419.56
2023-03-20T10:33:09.597Z,99414.53
2023-03-20T10:35:44.461Z,99415.75
2023-03-20T10:38:26.050Z,99409.16
2023-03-20T10:41:01.217Z,99416.91
2023-03-20T10:43:33.149Z,99417.78
2023-03-20T10:46:08.961Z,99420.97
2023-03-20T10:48:41.590Z,99413.53
2023-03-20T10:51:16.950Z,99421.13
2023-03-20T10:53:52.573Z,99407.19
2023-03-20T10:56:32.661Z,99412.34
2023-03-20T10:59:08.592Z,99414.66
2023-03-20T11:01:37.695Z,99411.09
2023-03-20T11:04:08.957Z,99415.41
2023-03-20T11:06:50.101Z,99404.72
2023-03-20T11:09:25.508Z,99394.22
2023-03-20T11:12:01.202Z,99397.09
2023-03-20T11:14:41.156Z,99399.75
2023-03-20T11:17:13.796Z,99394.09
2023-03-20T11:19:44.726Z,99395.88
2023-03-20T11:22:27.845Z,99387.59
2023-03-20T11:25:02.141Z,99382.50
2023-03-20T11:27:34.866Z,99386.56
2023-03-20T11:30:08.057Z,99382.00
2023-03-20T11:32:43.070Z,99374.88
2023-03-20T11:35:23.958Z,99372.72
2023-03-20T11:37:54.940Z,99371.03
2023-03-20T11:40:25.660Z,99365.19
2023-03-20T11:42:59.154Z,99367.56
2023-03-20T11:45:28.152Z,99362.25
2023-03-20T11:47:58.944Z,99361.19
2023-03-20T11:50:31.539Z,99363.31
2023-03-20T11:53:01.298Z,99353.72
2023-03-20T11:55:32.722Z,99345.53
2023-03-20T11:58:08.931Z,99342.81
2023-03-20T12:00:41.601Z,99342.97
2023-03-20T12:03:43.238Z,99344.66
2023-03-20T12:06:18.334Z,99321.28
2023-03-20T12:08:52.829Z,99329.44
2023-03-20T12:11:36.324Z,99335.94
2023-03-20T12:14:16.991Z,99339.75
2023-03-20T12:16:46.677Z,99322.41
2023-03-20T12:19:20.294Z,99324.78
2023-03-20T12:21:58.972Z,99308.69
2023-03-20T12:24:38.929Z,99317.31
2023-03-20T12:27:25.401Z,99312.25
2023-03-20T12:30:04.539Z,99315.94
2023-03-20T12:32:38.632Z,99294.81
2023-03-20T12:35:17.369Z,99295.53
2023-03-20T12:37:46.043Z,99297.44
2023-03-20T12:40:17.191Z,99298.53
2023-03-20T12:42:59.861Z,99296.78
2023-03-20T12:45:35.221Z,99288.84
2023-03-20T12:48:22.629Z,99286.06
2023-03-20T12:50:57.607Z,99287.03
2023-03-20T12:53:40.915Z,99281.47
2023-03-20T12:56:19.598Z,99270.09
2023-03-20T12:58:54.418Z,99275.94
2023-03-20T13:01:32.370Z,99285.84
2023-03-20T13:04:33.256Z,99259.09
2023-03-20T13:07:03.253Z,99256.47
2023-03-20T13:09:48.129Z,99257.94
2023-03-20T13:12:25.709Z,99254.81
2023-03-20T13:15:03.402Z,99259.84
2023-03-20T13:17:39.046Z,99257.31
2023-03-20T13:20:35.730Z,99266.59
2023-03-20T13:23:27.501Z,99276.09
2023-03-20T13:26:27.302Z,99269.59
2023-03-20T13:29:07.945Z,99269.66
2023-03-20T13:31:47.168Z,99258.91
2023-03-20T13:34:30.330Z,99261.72
2023-03-20T13:37:23.118Z,99255.81
2023-03-20T13:40:02.448Z,99269.91
2023-03-20T13:42:35.979Z,99269.38
2023-03-20T13:45:12.636Z,99260.91
2023-03-20T13:47:41.087Z,99277.88
2023-03-20T13:50:31.116Z,99263.97
2023-03-20T13:53:06.237Z,99263.63
2023-03-20T13:55:42.923Z,99263.63
2023-03-20T13:58:30.154Z,99261.44
2023-03-20T14:01:05.354Z,99261.38
2023-03-20T14:03:37.042Z,99270.34
2023-03-20T14:06:37.462Z,99273.19
2023-03-20T14:09:25.811Z,99255.78
2023-03-20T14:11:57.769Z,99268.63
2023-03-20T14:14:29.528Z,99261.63
2023-03-20T14:17:12.310Z,99261.81
2023-03-20T14:19:42.653Z,99249.06
2023-03-20T14:22:18.445Z,99249.19
2023-03-20T14:25:00.945Z,99251.00
2023-03-20T14:27:44.340Z,99261.50
2023-03-20T14:30:44.663Z,99254.41
2023-03-20T14:33:31.247Z,99264.38
2023-03-20T14:36:22.071Z,99256.31
2023-03-20T14:39:01.574Z,99258.34
2023-03-20T14:41:38.910Z,99261.72
2023-03-20T14:44:24.948Z,99272.03
2023-03-20T14:47:00.621Z,99260.13
2023-03-20T14:49:52.965Z,99259.09
2023-03-20T14:52:52.776Z,99276.09
2023-03-20T14:56:08.058Z,99282.66
2023-03-20T14:59:00.826Z,99275.09
2023-03-20T15:01:46.792Z,99267.31
2023-03-20T15:04:31.121Z,99271.63
2023-03-20T15:07:03.967Z,99280.84
2023-03-20T15:09:38.163Z,99273.91
2023-03-20T15:12:08.253Z,99275.22
2023-03-20T15:14:42.903Z,99281.03
2023-03-20T15:17:21.113Z,99276.13
2023-03-20T15:19:52.097Z,99267.38
2023-03-20T15:22:22.159Z,99277.97
2023-03-20T15:24:57.419Z,99270.50
2023-03-20T15:27:31.311Z,99282.19
2023-03-20T15:30:02.462Z,99270.19
2023-03-20T15:32:36.945Z,99279.88
2023-03-20T15:35:08.174Z,99279.03
2023-03-20T15:37:38.412Z,99284.66
2023-03-20T15:40:15.487Z,99286.00
2023-03-20T15:42:46.695Z,99281.16
2023-03-20T15:45:27.820Z,99284.44
2023-03-20T15:48:04.792Z,99288.91
2023-03-20T15:50:36.028Z,99284.09
2023-03-20T15:53:11.852Z,99279.63
2023-03-20T15:55:41.857Z,99289.69
2023-03-20T15:58:16.595Z,99293.88
2023-03-20T16:00:49.183Z,99289.81
2023-03-20T16:03:21.431Z,99293.25
2023-03-20T16:05:54.279Z,99287.00
2023-03-20T16:08:27.120Z,99298.28
2023-03-20T16:11:02.214Z,99287.47
2023-03-20T16:13:39.012Z,99291.94
2023-03-20T16:16:13.576Z,99289.94
2023-03-20T16:18:44.412Z,99314.44
2023-03-20T16:21:21.317Z,99300.13
2023-03-20T16:23:52.729Z,99299.28
2023-03-20T16:26:24.772Z,99297.66
2023-03-20T16:28:59.542Z,99309.09
2023-03-20T16:31:33.044Z,99306.16
2023-03-20T16:34:05.061Z,99309.50
2023-03-20T16:36:37.448Z,99305.81
2023-03-20T16:39:11.454Z,99305.81
2023-03-20T16:41:43.990Z,99314.75
2023-03-20T16:44:17.193Z,99317.38
2023-03-20T16:46:59.798Z,99318.09
2023-03-20T16:49:53.994Z,99315.94
2023-03-20T16:52:28.621Z,99315.84
2023-03-20T16:55:01.700Z,99311.41
2023-03-20T16:57:37.244Z,99309.38
2023-03-20T17:00:24.973Z,99314.75
2023-03-20T17:03:02.038Z,99326.53
2023-03-20T17:05:51.658Z,99310.09
2023-03-20T17:08:30.010Z,99316.09
2023-03-20T17:11:07.240Z,99319.47
2023-03-20T17:13:37.502Z,99325.50
2023-03-20T17:16:09.032Z,99326.50
2023-03-20T17:18:41.120Z,99324.00
2023-03-20T17:21:13.022Z,99326.47
2023-03-20T17:23:42.332Z,99324.34
2023-03-20T17:26:13.362Z,99328.16
2023-03-20T17:28:45.541Z,99325.19
2023-03-20T17:31:17.901Z,99325.97
2023-03-20T17:33:47.395Z,99333.34
2023-03-20T17:36:17.882Z,99328.53
2023-03-20T17:38:46.532Z,99337.16
2023-03-20T17:41:16.665Z,99320.22
2023-03-20T17:43:45.943Z,99330.41
2023-03-20T17:46:21.004Z,99317.19
2023-03-20T17:48:50.729Z,99321.03
2023-03-20T17:51:19.535Z,99323.13
2023-03-20T17:53:47.582Z,99332.78
2023-03-20T17:56:17.721Z,99327.81
2023-03-20T17:58:46.078Z,99329.09
2023-03-20T18:01:16.997Z,99331.22
2023-03-20T18:03:45.252Z,99324.84
2023-03-20T18:06:23.353Z,99331.09
2023-03-20T18:08:52.814Z,99328.16
2023-03-20T18:11:21.519Z,99325.38
2023-03-20T18:13:50.287Z,99326.63
2023-03-20T18:16:22.636Z,99324.00
2023-03-20T18:18:51.125Z,99333.53
2023-03-20T18:21:19.973Z,99336.09
2023-03-20T18:23:49.872Z,99330.03
2023-03-20T18:26:25.383Z,99333.03
2023-03-20T18:28:57.066Z,99330.72
2023-03-20T18:31:28.094Z,99324.13
2023-03-20T18:33:58.261Z,99326.22
2023-03-20T18:36:28.167Z,99315.22
2023-03-20T18:38:56.369Z,99319.38
2023-03-20T18:41:24.622Z,99323.19
2023-03-20T18:43:55.760Z,99307.72
2023-03-20T18:46:26.828Z,99311.72
2023-03-20T18:48:58.167Z,99305.59
2023-03-20T18:51:26.436Z,99314.28
2023-03-20T18:53:54.499Z,99314.00
2023-03-20T18:56:25.530Z,99315.31
2023-03-20T18:58:56.343Z,99305.75
2023-03-20T19:01:24.870Z,99311.34
2023-03-20T19:03:54.036Z,99320.13
2023-03-20T19:06:25.040Z,99314.50
2023-03-20T19:08:54.681Z,99319.13
2023-03-20T19:11:23.377Z,99318.50
2023-03-20T19:13:54.722Z,99323.19
2023-03-20T19:16:26.134Z,99318.09
2023-03-20T19:18:55.509Z,99330.28
2023-03-20T19:21:26.615Z,99325.81
2023-03-20T19:23:56.919Z,99326.97
2023-03-20T19:26:27.061Z,99325.06
2023-03-20T19:28:56.244Z,99330.28
2023-03-20T19:31:25.249Z,99327.44
2023-03-20T19:33:53.660Z,99327.25
2023-03-20T19:36:29.389Z,99334.19
2023-03-20T19:39:00.222Z,99331.31
2023-03-20T19:41:29.503Z,99329.66
2023-03-20T19:43:58.473Z,99331.84
2023-03-20T19:46:44.037Z,99344.63
2023-03-20T19:49:20.894Z,99333.38
2023-03-20T19:51:51.454Z,99325.13
2023-03-20T19:54:19.647Z,99328.00
2023-03-20T19:56:47.934Z,99329.03
2023-03-20T19:59:17.330Z,99323.00
2023-03-20T20:01:47.168Z,99333.47
2023-03-20T20:04:16.443Z,99328.69
2023-03-20T20:06:47.439Z,99331.50
2023-03-20T20:09:18.261Z,99334.47
2023-03-20T20:11:46.806Z,99331.50
2023-03-20T20:14:15.472Z,99339.53
2023-03-20T20:16:45.828Z,99327.16
2023-03-20T20:19:15.235Z,99339.00
2023-03-20T20:24:33.827Z,99329.63
2023-03-20T20:27:16.204Z,99331.50
2023-03-20T20:29:48.318Z,99327.41
2023-03-20T20:32:16.555Z,99335.75
2023-03-20T20:38:21.188Z,99319.22
2023-03-20T20:40:27.868Z,99322.81
2023-03-20T20:43:01.370Z,99319.31
2023-03-20T20:45:31.657Z,99311.91
2023-03-20T20:48:01.725Z,99312.09
2023-03-20T20:50:32.105Z,99315.06
2023-03-20T20:53:01.288Z,99309.53
2023-03-20T20:55:32.151Z,99307.03
2023-03-20T20:58:01.545Z,99305.25
2023-03-20T21:00:47.979Z,99310.13
2023-03-20T21:03:20.433Z,99320.25
2023-03-20T21:05:48.697Z,99314.19
2023-03-20T21:08:18.694Z,99318.22
2023-03-20T21:10:49.713Z,99322.81
2023-03-20T21:13:18.298Z,99320.34
2023-03-20T21:15:58.621Z,99323.84
2023-03-20T21:18:27.272Z,99319.16
2023-03-20T21:20:55.909Z,99325.94
2023-03-20T21:23:26.164Z,99322.66
2023-03-20T21:25:56.102Z,99327.09
2023-03-20T21:28:24.380Z,99314.22
2023-03-20T21:31:20.510Z,99321.94
2023-03-20T21:33:41.307Z,99316.09
2023-03-20T21:36:10.170Z,99322.38
2023-03-20T21:41:29.800Z,99320.34
2023-03-20T21:44:00.776Z,99325.78
2023-03-20T21:55:35.200Z,99318.31
2023-03-20T21:58:27.510Z,99326.91
2023-03-20T22:03:47.843Z,99310.63
2023-03-20T22:07:05.949Z,99318.13
2023-03-20T22:15:33.899Z,99318.09
2023-03-20T22:18:12.119Z,99316.34
2023-03-20T22:21:06.732Z,99315.81
2023-03-20T22:23:56.235Z,99315.25
2023-03-20T22:29:35.753Z,99322.81
2023-03-20T22:35:15.585Z,99320.34
2023-03-20T22:38:06.122Z,99318.72
2023-03-20T22:43:48.715Z,99318.47
2023-03-20T22:46:03.218Z,99315.75
2023-03-20T22:48:38.090Z,99312.50
2023-03-20T22:51:07.105Z,99322.03
2023-03-20T22:53:35.834Z,99311.81
2023-03-20T22:56:03.859Z,99306.47
2023-03-20T22:58:32.468Z,99306.81
2023-03-20T23:01:02.607Z,99304.16
2023-03-20T23:03:41.004Z,99297.94
2023-03-20T23:06:19.369Z,99297.16
2023-03-20T23:08:53.969Z,99289.59
2023-03-20T23:11:24.272Z,99289.59
2023-03-20T23:13:54.370Z,99297.13
2023-03-20T23:16:22.863Z,99301.56
2023-03-20T23:18:52.423Z,99297.84
2023-03-20T23:21:22.521Z,99298.59
2023-03-20T23:23:51.186Z,99299.63
2023-03-20T23:26:22.786Z,99296.91
2023-03-20T23:28:53.568Z,99296.47
2023-03-20T23:31:24.455Z,99290.00
2023-03-20T23:33:54.568Z,99291.94
2023-03-20T23:36:36.019Z,99298.78
2023-03-20T23:39:05.829Z,99293.41
2023-03-20T23:42:06.533Z,99292.13
2023-03-20T23:44:22.792Z,99292.75
2023-03-20T23:46:51.122Z,99284.81
2023-03-20T23:49:20.008Z,99290.34
2023-03-20T23:51:50.104Z,99266.88
2023-03-20T23:54:18.773Z,99273.19
2023-03-20T23:56:46.910Z,99271.84
2023-03-20T23:59:22.037Z,99277.88
